Aviation Digital Data Service (ADDS)

Output produced by METARs form (0017 UTC 25 September 2016)
found at http://aviationweather.gov/adds/metars/
 
KPHX 242326Z 2500/2524 28006KT P6SM SKC 
     FM250600 VRB04KT P6SM SKC 
     FM250900 05008G15KT P6SM SKC